sensor_id;sensor_type;location;lat;lon;timestamp;temperature;humidity
39325;DHT22;25037;49.488;9.900;2022-09-17T00:00:37;11.50;70.00
39325;DHT22;25037;49.488;9.900;2022-09-17T00:03:02;11.50;70.10
39325;DHT22;25037;49.488;9.900;2022-09-17T00:05:28;11.50;70.10
39325;DHT22;25037;49.488;9.900;2022-09-17T00:07:54;11.50;70.20
39325;DHT22;25037;49.488;9.900;2022-09-17T00:10:20;11.50;70.30
39325;DHT22;25037;49.488;9.900;2022-09-17T00:12:46;11.50;70.40
39325;DHT22;25037;49.488;9.900;2022-09-17T00:15:12;11.50;70.50
39325;DHT22;25037;49.488;9.900;2022-09-17T00:17:37;11.60;70.60
39325;DHT22;25037;49.488;9.900;2022-09-17T00:20:04;11.70;70.60
39325;DHT22;25037;49.488;9.900;2022-09-17T00:22:32;11.70;70.60
39325;DHT22;25037;49.488;9.900;2022-09-17T00:24:57;11.70;70.60
39325;DHT22;25037;49.488;9.900;2022-09-17T00:27:23;11.80;70.60
39325;DHT22;25037;49.488;9.900;2022-09-17T00:29:48;11.90;70.50
39325;DHT22;25037;49.488;9.900;2022-09-17T00:32:14;11.90;70.40
39325;DHT22;25037;49.488;9.900;2022-09-17T00:34:39;12.00;70.30
39325;DHT22;25037;49.488;9.900;2022-09-17T00:37:06;12.00;70.20
39325;DHT22;25037;49.488;9.900;2022-09-17T00:39:32;11.90;70.10
39325;DHT22;25037;49.488;9.900;2022-09-17T00:41:57;11.90;70.10
39325;DHT22;25037;49.488;9.900;2022-09-17T00:44:52;11.90;70.20
39325;DHT22;25037;49.488;9.900;2022-09-17T00:49:54;11.80;70.40
39325;DHT22;25037;49.488;9.900;2022-09-17T00:52:24;11.70;70.50
39325;DHT22;25037;49.488;9.900;2022-09-17T00:55:06;11.70;70.50
39325;DHT22;25037;49.488;9.900;2022-09-17T00:57:33;11.70;70.50
39325;DHT22;25037;49.488;9.900;2022-09-17T00:59:59;11.70;70.40
39325;DHT22;25037;49.488;9.900;2022-09-17T01:02:25;11.70;70.50
39325;DHT22;25037;49.488;9.900;2022-09-17T01:04:50;11.80;70.40
39325;DHT22;25037;49.488;9.900;2022-09-17T01:10:16;11.90;70.40
39325;DHT22;25037;49.488;9.900;2022-09-17T01:15:54;11.90;70.30
39325;DHT22;25037;49.488;9.900;2022-09-17T01:18:44;12.00;70.30
39325;DHT22;25037;49.488;9.900;2022-09-17T01:37:51;12.20;70.00
39325;DHT22;25037;49.488;9.900;2022-09-17T01:41:13;12.20;69.90
39325;DHT22;25037;49.488;9.900;2022-09-17T01:43:49;12.30;69.70
39325;DHT22;25037;49.488;9.900;2022-09-17T01:48:58;12.40;69.50
39325;DHT22;25037;49.488;9.900;2022-09-17T01:51:25;12.40;69.40
39325;DHT22;25037;49.488;9.900;2022-09-17T01:53:56;12.30;69.30
39325;DHT22;25037;49.488;9.900;2022-09-17T01:56:28;12.40;69.30
39325;DHT22;25037;49.488;9.900;2022-09-17T01:59:05;12.30;69.30
39325;DHT22;25037;49.488;9.900;2022-09-17T02:01:33;12.40;69.40
39325;DHT22;25037;49.488;9.900;2022-09-17T02:04:08;12.40;69.30
39325;DHT22;25037;49.488;9.900;2022-09-17T02:06:37;12.40;69.40
39325;DHT22;25037;49.488;9.900;2022-09-17T02:09:15;12.40;69.30
39325;DHT22;25037;49.488;9.900;2022-09-17T02:11:45;12.50;69.30
39325;DHT22;25037;49.488;9.900;2022-09-17T02:14:20;12.50;69.20
39325;DHT22;25037;49.488;9.900;2022-09-17T02:16:58;12.40;69.10
39325;DHT22;25037;49.488;9.900;2022-09-17T02:19:27;12.40;69.20
39325;DHT22;25037;49.488;9.900;2022-09-17T02:22:15;12.30;69.20
39325;DHT22;25037;49.488;9.900;2022-09-17T02:25:05;12.30;69.20
39325;DHT22;25037;49.488;9.900;2022-09-17T02:28:00;12.30;69.20
39325;DHT22;25037;49.488;9.900;2022-09-17T02:30:26;12.30;69.20
39325;DHT22;25037;49.488;9.900;2022-09-17T02:32:53;12.20;69.30
39325;DHT22;25037;49.488;9.900;2022-09-17T02:35:19;12.20;69.30
39325;DHT22;25037;49.488;9.900;2022-09-17T02:37:45;12.10;69.40
39325;DHT22;25037;49.488;9.900;2022-09-17T02:40:12;12.00;69.50
39325;DHT22;25037;49.488;9.900;2022-09-17T02:43:01;12.00;69.60
39325;DHT22;25037;49.488;9.900;2022-09-17T02:59:33;11.70;70.10
39325;DHT22;25037;49.488;9.900;2022-09-17T03:02:08;11.70;70.20
39325;DHT22;25037;49.488;9.900;2022-09-17T03:04:37;11.60;70.20
39325;DHT22;25037;49.488;9.900;2022-09-17T03:07:06;11.60;70.10
39325;DHT22;25037;49.488;9.900;2022-09-17T03:09:33;11.60;70.20
39325;DHT22;25037;49.488;9.900;2022-09-17T03:11:59;11.50;70.30
39325;DHT22;25037;49.488;9.900;2022-09-17T03:14:25;11.50;70.30
39325;DHT22;25037;49.488;9.900;2022-09-17T03:16:50;11.50;70.40
39325;DHT22;25037;49.488;9.900;2022-09-17T03:19:16;11.50;70.50
39325;DHT22;25037;49.488;9.900;2022-09-17T03:21:41;11.50;70.60
39325;DHT22;25037;49.488;9.900;2022-09-17T03:24:07;11.50;70.60
39325;DHT22;25037;49.488;9.900;2022-09-17T03:26:33;11.60;70.70
39325;DHT22;25037;49.488;9.900;2022-09-17T03:28:58;11.60;70.70
39325;DHT22;25037;49.488;9.900;2022-09-17T03:31:24;11.70;70.70
39325;DHT22;25037;49.488;9.900;2022-09-17T03:33:49;11.70;70.60
39325;DHT22;25037;49.488;9.900;2022-09-17T03:36:15;11.80;70.60
39325;DHT22;25037;49.488;9.900;2022-09-17T03:38:40;11.80;70.50
39325;DHT22;25037;49.488;9.900;2022-09-17T03:41:06;11.80;70.50
39325;DHT22;25037;49.488;9.900;2022-09-17T03:43:32;11.90;70.40
39325;DHT22;25037;49.488;9.900;2022-09-17T03:45:58;11.90;70.40
39325;DHT22;25037;49.488;9.900;2022-09-17T03:48:25;12.00;70.40
39325;DHT22;25037;49.488;9.900;2022-09-17T03:50:50;12.00;70.30
39325;DHT22;25037;49.488;9.900;2022-09-17T03:53:16;12.00;70.20
39325;DHT22;25037;49.488;9.900;2022-09-17T03:55:42;12.10;70.20
39325;DHT22;25037;49.488;9.900;2022-09-17T03:58:07;12.10;70.10
39325;DHT22;25037;49.488;9.900;2022-09-17T04:00:33;12.10;70.00
39325;DHT22;25037;49.488;9.900;2022-09-17T04:03:01;12.20;70.10
39325;DHT22;25037;49.488;9.900;2022-09-17T04:05:27;12.10;70.00
39325;DHT22;25037;49.488;9.900;2022-09-17T04:07:53;12.10;70.00
39325;DHT22;25037;49.488;9.900;2022-09-17T04:10:18;12.20;70.00
39325;DHT22;25037;49.488;9.900;2022-09-17T04:12:44;12.10;69.90
39325;DHT22;25037;49.488;9.900;2022-09-17T04:15:09;12.20;69.90
39325;DHT22;25037;49.488;9.900;2022-09-17T04:17:35;12.20;70.00
39325;DHT22;25037;49.488;9.900;2022-09-17T04:20:01;12.20;69.90
39325;DHT22;25037;49.488;9.900;2022-09-17T04:22:26;12.20;69.90
39325;DHT22;25037;49.488;9.900;2022-09-17T04:24:52;12.20;69.90
39325;DHT22;25037;49.488;9.900;2022-09-17T04:27:17;12.20;69.90
39325;DHT22;25037;49.488;9.900;2022-09-17T04:29:43;12.20;69.90
39325;DHT22;25037;49.488;9.900;2022-09-17T04:32:09;12.20;69.80
39325;DHT22;25037;49.488;9.900;2022-09-17T04:34:34;12.20;69.70
39325;DHT22;25037;49.488;9.900;2022-09-17T04:37:00;12.20;69.70
39325;DHT22;25037;49.488;9.900;2022-09-17T04:39:25;12.20;69.70
39325;DHT22;25037;49.488;9.900;2022-09-17T04:41:51;12.20;69.60
39325;DHT22;25037;49.488;9.900;2022-09-17T04:44:16;12.20;69.60
39325;DHT22;25037;49.488;9.900;2022-09-17T04:46:42;12.30;69.50
39325;DHT22;25037;49.488;9.900;2022-09-17T04:49:07;12.30;69.60
39325;DHT22;25037;49.488;9.900;2022-09-17T04:51:33;12.30;69.60
39325;DHT22;25037;49.488;9.900;2022-09-17T04:53:58;12.30;69.60
39325;DHT22;25037;49.488;9.900;2022-09-17T04:56:24;12.30;69.50
39325;DHT22;25037;49.488;9.900;2022-09-17T04:58:49;12.30;69.40
39325;DHT22;25037;49.488;9.900;2022-09-17T05:01:15;12.30;69.40
39325;DHT22;25037;49.488;9.900;2022-09-17T05:03:43;12.30;69.40
39325;DHT22;25037;49.488;9.900;2022-09-17T05:06:08;12.30;69.40
39325;DHT22;25037;49.488;9.900;2022-09-17T05:08:34;12.30;69.30
39325;DHT22;25037;49.488;9.900;2022-09-17T05:11:00;12.30;69.30
39325;DHT22;25037;49.488;9.900;2022-09-17T05:13:26;12.30;69.40
39325;DHT22;25037;49.488;9.900;2022-09-17T05:15:56;12.30;69.50
39325;DHT22;25037;49.488;9.900;2022-09-17T05:18:22;12.30;69.70
39325;DHT22;25037;49.488;9.900;2022-09-17T05:20:48;12.30;69.70
39325;DHT22;25037;49.488;9.900;2022-09-17T05:23:13;12.30;69.90
39325;DHT22;25037;49.488;9.900;2022-09-17T05:25:39;12.40;70.00
39325;DHT22;25037;49.488;9.900;2022-09-17T05:28:04;12.40;70.00
39325;DHT22;25037;49.488;9.900;2022-09-17T05:30:30;12.40;70.20
39325;DHT22;25037;49.488;9.900;2022-09-17T05:33:00;12.40;70.40
39325;DHT22;25037;49.488;9.900;2022-09-17T05:35:28;12.40;70.60
39325;DHT22;25037;49.488;9.900;2022-09-17T05:38:01;12.40;70.60
39325;DHT22;25037;49.488;9.900;2022-09-17T05:40:28;12.40;70.90
39325;DHT22;25037;49.488;9.900;2022-09-17T05:42:58;12.40;70.90
39325;DHT22;25037;49.488;9.900;2022-09-17T05:45:23;12.40;71.10
39325;DHT22;25037;49.488;9.900;2022-09-17T05:47:54;12.40;71.10
39325;DHT22;25037;49.488;9.900;2022-09-17T05:50:20;12.30;71.40
39325;DHT22;25037;49.488;9.900;2022-09-17T05:52:45;12.30;71.40
39325;DHT22;25037;49.488;9.900;2022-09-17T05:55:11;12.30;71.50
39325;DHT22;25037;49.488;9.900;2022-09-17T05:57:36;12.30;71.50
39325;DHT22;25037;49.488;9.900;2022-09-17T06:00:03;12.40;71.70
39325;DHT22;25037;49.488;9.900;2022-09-17T06:02:29;12.40;71.80
39325;DHT22;25037;49.488;9.900;2022-09-17T06:04:54;12.50;71.90
39325;DHT22;25037;49.488;9.900;2022-09-17T06:07:20;12.50;71.80
39325;DHT22;25037;49.488;9.900;2022-09-17T06:09:45;12.50;71.80
39325;DHT22;25037;49.488;9.900;2022-09-17T06:12:11;12.50;71.70
39325;DHT22;25037;49.488;9.900;2022-09-17T06:14:36;12.50;71.70
39325;DHT22;25037;49.488;9.900;2022-09-17T06:17:02;12.50;71.90
39325;DHT22;25037;49.488;9.900;2022-09-17T06:19:27;12.60;71.90
39325;DHT22;25037;49.488;9.900;2022-09-17T06:21:53;12.60;71.90
39325;DHT22;25037;49.488;9.900;2022-09-17T06:24:19;12.60;72.10
39325;DHT22;25037;49.488;9.900;2022-09-17T06:26:44;12.60;72.10
39325;DHT22;25037;49.488;9.900;2022-09-17T06:29:10;12.60;72.10
39325;DHT22;25037;49.488;9.900;2022-09-17T06:31:39;12.60;72.10
39325;DHT22;25037;49.488;9.900;2022-09-17T06:34:05;12.70;72.10
39325;DHT22;25037;49.488;9.900;2022-09-17T06:36:30;12.70;72.10
39325;DHT22;25037;49.488;9.900;2022-09-17T06:38:56;12.70;72.00
39325;DHT22;25037;49.488;9.900;2022-09-17T06:41:21;12.80;72.00
39325;DHT22;25037;49.488;9.900;2022-09-17T06:43:47;12.80;72.00
39325;DHT22;25037;49.488;9.900;2022-09-17T06:46:12;12.80;72.00
39325;DHT22;25037;49.488;9.900;2022-09-17T06:48:38;12.90;72.10
39325;DHT22;25037;49.488;9.900;2022-09-17T06:51:06;13.00;72.10
39325;DHT22;25037;49.488;9.900;2022-09-17T06:53:32;13.00;72.10
39325;DHT22;25037;49.488;9.900;2022-09-17T06:55:59;13.10;72.00
39325;DHT22;25037;49.488;9.900;2022-09-17T06:58:25;13.10;72.00
39325;DHT22;25037;49.488;9.900;2022-09-17T07:00:51;13.20;71.80
39325;DHT22;25037;49.488;9.900;2022-09-17T07:03:17;13.20;71.80
39325;DHT22;25037;49.488;9.900;2022-09-17T07:05:43;13.20;71.70
39325;DHT22;25037;49.488;9.900;2022-09-17T07:08:09;13.30;71.60
39325;DHT22;25037;49.488;9.900;2022-09-17T07:10:35;13.20;71.60
39325;DHT22;25037;49.488;9.900;2022-09-17T07:13:01;13.30;71.70
39325;DHT22;25037;49.488;9.900;2022-09-17T07:15:27;13.30;71.70
39325;DHT22;25037;49.488;9.900;2022-09-17T07:17:52;13.40;71.70
39325;DHT22;25037;49.488;9.900;2022-09-17T07:20:18;13.50;71.70
39325;DHT22;25037;49.488;9.900;2022-09-17T07:22:44;13.60;71.60
39325;DHT22;25037;49.488;9.900;2022-09-17T07:25:10;13.60;71.30
39325;DHT22;25037;49.488;9.900;2022-09-17T07:27:35;13.70;71.10
39325;DHT22;25037;49.488;9.900;2022-09-17T07:30:01;13.80;71.10
39325;DHT22;25037;49.488;9.900;2022-09-17T07:32:29;13.80;71.10
39325;DHT22;25037;49.488;9.900;2022-09-17T07:34:55;13.90;71.10
39325;DHT22;25037;49.488;9.900;2022-09-17T07:37:21;14.00;71.00
39325;DHT22;25037;49.488;9.900;2022-09-17T07:39:46;14.10;70.80
39325;DHT22;25037;49.488;9.900;2022-09-17T07:42:12;14.30;70.70
39325;DHT22;25037;49.488;9.900;2022-09-17T07:44:37;14.30;70.60
39325;DHT22;25037;49.488;9.900;2022-09-17T07:47:03;14.40;70.30
39325;DHT22;25037;49.488;9.900;2022-09-17T07:49:29;14.50;70.10
39325;DHT22;25037;49.488;9.900;2022-09-17T07:51:55;14.50;70.10
39325;DHT22;25037;49.488;9.900;2022-09-17T07:54:21;14.60;69.90
39325;DHT22;25037;49.488;9.900;2022-09-17T07:56:47;14.70;69.40
39325;DHT22;25037;49.488;9.900;2022-09-17T07:59:12;14.80;69.30
39325;DHT22;25037;49.488;9.900;2022-09-17T08:01:38;14.90;69.20
39325;DHT22;25037;49.488;9.900;2022-09-17T08:04:03;15.00;69.00
39325;DHT22;25037;49.488;9.900;2022-09-17T08:06:30;15.10;68.80
39325;DHT22;25037;49.488;9.900;2022-09-17T08:08:57;15.30;68.70
39325;DHT22;25037;49.488;9.900;2022-09-17T08:11:27;15.40;68.10
39325;DHT22;25037;49.488;9.900;2022-09-17T08:13:53;15.50;67.80
39325;DHT22;25037;49.488;9.900;2022-09-17T08:16:20;15.60;67.60
39325;DHT22;25037;49.488;9.900;2022-09-17T08:18:47;15.60;67.50
39325;DHT22;25037;49.488;9.900;2022-09-17T08:21:15;15.70;67.40
39325;DHT22;25037;49.488;9.900;2022-09-17T08:23:42;15.80;67.40
39325;DHT22;25037;49.488;9.900;2022-09-17T08:26:14;15.80;67.50
39325;DHT22;25037;49.488;9.900;2022-09-17T08:28:44;16.00;67.30
39325;DHT22;25037;49.488;9.900;2022-09-17T08:31:10;16.10;67.10
39325;DHT22;25037;49.488;9.900;2022-09-17T08:33:38;16.30;66.90
39325;DHT22;25037;49.488;9.900;2022-09-17T08:36:05;16.70;66.50
39325;DHT22;25037;49.488;9.900;2022-09-17T08:38:33;16.80;66.20
39325;DHT22;25037;49.488;9.900;2022-09-17T08:46:47;16.70;66.00
39325;DHT22;25037;49.488;9.900;2022-09-17T08:52:12;16.50;66.30
39325;DHT22;25037;49.488;9.900;2022-09-17T09:00:18;16.30;66.50
39325;DHT22;25037;49.488;9.900;2022-09-17T09:05:24;16.10;66.60
39325;DHT22;25037;49.488;9.900;2022-09-17T09:07:57;16.10;66.50
39325;DHT22;25037;49.488;9.900;2022-09-17T09:10:27;16.10;66.60
39325;DHT22;25037;49.488;9.900;2022-09-17T09:12:57;16.10;66.30
39325;DHT22;25037;49.488;9.900;2022-09-17T09:18:24;16.30;66.50
39325;DHT22;25037;49.488;9.900;2022-09-17T09:23:20;16.80;65.70
39325;DHT22;25037;49.488;9.900;2022-09-17T09:25:53;16.90;65.40
39325;DHT22;25037;49.488;9.900;2022-09-17T09:28:31;16.90;65.30
39325;DHT22;25037;49.488;9.900;2022-09-17T09:31:05;17.00;64.90
39325;DHT22;25037;49.488;9.900;2022-09-17T09:33:35;17.00;64.40
39325;DHT22;25037;49.488;9.900;2022-09-17T09:36:06;17.10;64.00
39325;DHT22;25037;49.488;9.900;2022-09-17T09:38:55;17.30;63.40
39325;DHT22;25037;49.488;9.900;2022-09-17T09:43:54;17.70;62.70
39325;DHT22;25037;49.488;9.900;2022-09-17T09:46:25;18.00;62.40
39325;DHT22;25037;49.488;9.900;2022-09-17T09:49:21;18.30;61.40
39325;DHT22;25037;49.488;9.900;2022-09-17T09:52:17;18.30;61.00
39325;DHT22;25037;49.488;9.900;2022-09-17T10:00:25;17.90;61.20
39325;DHT22;25037;49.488;9.900;2022-09-17T10:03:02;17.70;61.60
39325;DHT22;25037;49.488;9.900;2022-09-17T10:05:29;17.50;62.10
39325;DHT22;25037;49.488;9.900;2022-09-17T10:07:55;17.40;62.40
39325;DHT22;25037;49.488;9.900;2022-09-17T10:10:21;17.70;62.20
39325;DHT22;25037;49.488;9.900;2022-09-17T10:12:46;18.20;61.90
39325;DHT22;25037;49.488;9.900;2022-09-17T10:15:27;18.60;61.30
39325;DHT22;25037;49.488;9.900;2022-09-17T10:18:17;19.00;61.00
39325;DHT22;25037;49.488;9.900;2022-09-17T10:20:59;19.30;60.50
39325;DHT22;25037;49.488;9.900;2022-09-17T10:23:30;19.60;59.10
39325;DHT22;25037;49.488;9.900;2022-09-17T10:25:58;19.50;58.80
39325;DHT22;25037;49.488;9.900;2022-09-17T10:30:59;19.20;58.90
39325;DHT22;25037;49.488;9.900;2022-09-17T10:33:28;19.00;58.80
39325;DHT22;25037;49.488;9.900;2022-09-17T10:35:56;18.80;58.80
39325;DHT22;25037;49.488;9.900;2022-09-17T10:38:31;19.10;58.10
39325;DHT22;25037;49.488;9.900;2022-09-17T10:41:11;19.30;57.20
39325;DHT22;25037;49.488;9.900;2022-09-17T10:43:37;19.50;57.50
39325;DHT22;25037;49.488;9.900;2022-09-17T10:46:07;19.50;57.30
39325;DHT22;25037;49.488;9.900;2022-09-17T10:48:39;19.30;56.30
39325;DHT22;25037;49.488;9.900;2022-09-17T10:51:07;19.10;56.30
39325;DHT22;25037;49.488;9.900;2022-09-17T10:53:59;18.90;56.40
39325;DHT22;25037;49.488;9.900;2022-09-17T10:56:36;18.80;56.50
39325;DHT22;25037;49.488;9.900;2022-09-17T10:59:37;18.80;56.60
39325;DHT22;25037;49.488;9.900;2022-09-17T11:05:04;18.90;55.20
39325;DHT22;25037;49.488;9.900;2022-09-17T11:07:55;18.80;54.60
39325;DHT22;25037;49.488;9.900;2022-09-17T11:10:31;18.80;53.90
39325;DHT22;25037;49.488;9.900;2022-09-17T11:13:17;18.90;53.90
39325;DHT22;25037;49.488;9.900;2022-09-17T11:16:05;18.90;53.70
39325;DHT22;25037;49.488;9.900;2022-09-17T11:18:39;19.10;53.80
39325;DHT22;25037;49.488;9.900;2022-09-17T11:21:26;19.20;53.40
39325;DHT22;25037;49.488;9.900;2022-09-17T11:29:54;19.90;50.80
39325;DHT22;25037;49.488;9.900;2022-09-17T11:35:24;19.90;48.70
39325;DHT22;25037;49.488;9.900;2022-09-17T11:37:55;19.70;48.80
39325;DHT22;25037;49.488;9.900;2022-09-17T11:40:44;19.70;49.40
39325;DHT22;25037;49.488;9.900;2022-09-17T11:43:26;19.70;48.70
39325;DHT22;25037;49.488;9.900;2022-09-17T11:48:52;19.80;49.10
39325;DHT22;25037;49.488;9.900;2022-09-17T11:51:40;19.80;48.60
39325;DHT22;25037;49.488;9.900;2022-09-17T11:56:45;19.80;48.50
39325;DHT22;25037;49.488;9.900;2022-09-17T11:59:55;19.90;49.40
39325;DHT22;25037;49.488;9.900;2022-09-17T12:02:52;19.90;49.80
39325;DHT22;25037;49.488;9.900;2022-09-17T12:05:25;19.90;49.20
39325;DHT22;25037;49.488;9.900;2022-09-17T12:13:56;19.90;48.30
39325;DHT22;25037;49.488;9.900;2022-09-17T12:16:37;19.80;48.20
39325;DHT22;25037;49.488;9.900;2022-09-17T12:19:28;19.30;48.00
39325;DHT22;25037;49.488;9.900;2022-09-17T12:22:24;18.90;50.00
39325;DHT22;25037;49.488;9.900;2022-09-17T12:24:51;18.60;51.00
39325;DHT22;25037;49.488;9.900;2022-09-17T12:30:12;18.30;52.90
39325;DHT22;25037;49.488;9.900;2022-09-17T12:43:34;18.40;53.20
39325;DHT22;25037;49.488;9.900;2022-09-17T12:57:06;18.50;52.70
39325;DHT22;25037;49.488;9.900;2022-09-17T12:59:44;18.50;53.00
39325;DHT22;25037;49.488;9.900;2022-09-17T13:02:19;18.50;52.70
39325;DHT22;25037;49.488;9.900;2022-09-17T13:04:58;18.40;52.50
39325;DHT22;25037;49.488;9.900;2022-09-17T13:10:48;18.50;53.30
39325;DHT22;25037;49.488;9.900;2022-09-17T13:19:43;18.70;51.60
39325;DHT22;25037;49.488;9.900;2022-09-17T13:22:20;18.60;51.20
39325;DHT22;25037;49.488;9.900;2022-09-17T13:25:06;18.70;50.80
39325;DHT22;25037;49.488;9.900;2022-09-17T13:27:33;18.60;50.70
39325;DHT22;25037;49.488;9.900;2022-09-17T13:30:01;18.70;51.10
39325;DHT22;25037;49.488;9.900;2022-09-17T13:37:58;18.90;50.30
39325;DHT22;25037;49.488;9.900;2022-09-17T13:40:32;19.00;49.80
39325;DHT22;25037;49.488;9.900;2022-09-17T13:43:06;18.90;50.10
39325;DHT22;25037;49.488;9.900;2022-09-17T13:46:03;19.00;49.50
39325;DHT22;25037;49.488;9.900;2022-09-17T13:48:21;19.00;48.80
39325;DHT22;25037;49.488;9.900;2022-09-17T13:50:47;18.90;48.90
39325;DHT22;25037;49.488;9.900;2022-09-17T13:58:12;18.90;48.40
39325;DHT22;25037;49.488;9.900;2022-09-17T14:11:36;19.00;48.90
39325;DHT22;25037;49.488;9.900;2022-09-17T14:19:24;18.70;48.10
39325;DHT22;25037;49.488;9.900;2022-09-17T14:27:14;19.00;47.80
39325;DHT22;25037;49.488;9.900;2022-09-17T14:30:32;19.10;48.30
39325;DHT22;25037;49.488;9.900;2022-09-17T14:32:38;19.20;47.70
39325;DHT22;25037;49.488;9.900;2022-09-17T14:37:52;19.40;47.30
39325;DHT22;25037;49.488;9.900;2022-09-17T14:40:20;19.40;47.60
39325;DHT22;25037;49.488;9.900;2022-09-17T14:42:49;19.40;47.70
39325;DHT22;25037;49.488;9.900;2022-09-17T14:45:41;19.40;47.30
39325;DHT22;25037;49.488;9.900;2022-09-17T14:48:32;19.20;47.50
39325;DHT22;25037;49.488;9.900;2022-09-17T14:53:46;19.10;47.80
39325;DHT22;25037;49.488;9.900;2022-09-17T14:56:20;19.10;48.10
39325;DHT22;25037;49.488;9.900;2022-09-17T14:58:53;18.90;47.80
39325;DHT22;25037;49.488;9.900;2022-09-17T15:01:25;18.80;48.20
39325;DHT22;25037;49.488;9.900;2022-09-17T15:06:42;18.70;48.40
39325;DHT22;25037;49.488;9.900;2022-09-17T15:09:16;18.70;48.60
39325;DHT22;25037;49.488;9.900;2022-09-17T15:11:43;18.60;48.50
39325;DHT22;25037;49.488;9.900;2022-09-17T15:14:30;18.50;48.80
39325;DHT22;25037;49.488;9.900;2022-09-17T15:16:58;18.40;49.10
39325;DHT22;25037;49.488;9.900;2022-09-17T15:19:36;18.40;49.40
39325;DHT22;25037;49.488;9.900;2022-09-17T15:22:15;18.30;49.30
39325;DHT22;25037;49.488;9.900;2022-09-17T15:25:00;18.40;49.50
39325;DHT22;25037;49.488;9.900;2022-09-17T15:27:37;18.40;49.70
39325;DHT22;25037;49.488;9.900;2022-09-17T15:32:34;18.40;49.70
39325;DHT22;25037;49.488;9.900;2022-09-17T15:37:52;18.30;48.90
39325;DHT22;25037;49.488;9.900;2022-09-17T15:40:30;18.30;48.50
39325;DHT22;25037;49.488;9.900;2022-09-17T15:45:42;18.60;47.70
39325;DHT22;25037;49.488;9.900;2022-09-17T15:48:32;18.50;48.10
39325;DHT22;25037;49.488;9.900;2022-09-17T15:51:00;18.50;47.90
39325;DHT22;25037;49.488;9.900;2022-09-17T15:53:31;18.40;48.40
39325;DHT22;25037;49.488;9.900;2022-09-17T15:56:35;18.30;48.60
39325;DHT22;25037;49.488;9.900;2022-09-17T16:01:49;18.10;49.60
39325;DHT22;25037;49.488;9.900;2022-09-17T16:04:25;18.00;49.90
39325;DHT22;25037;49.488;9.900;2022-09-17T16:12:00;17.80;50.40
39325;DHT22;25037;49.488;9.900;2022-09-17T16:14:26;17.80;50.50
39325;DHT22;25037;49.488;9.900;2022-09-17T16:16:51;17.80;50.60
39325;DHT22;25037;49.488;9.900;2022-09-17T16:19:19;17.70;50.50
39325;DHT22;25037;49.488;9.900;2022-09-17T16:21:44;17.70;50.70
39325;DHT22;25037;49.488;9.900;2022-09-17T16:24:10;17.50;50.80
39325;DHT22;25037;49.488;9.900;2022-09-17T16:26:35;17.40;51.00
39325;DHT22;25037;49.488;9.900;2022-09-17T16:29:04;17.30;51.20
39325;DHT22;25037;49.488;9.900;2022-09-17T16:31:31;17.30;51.30
39325;DHT22;25037;49.488;9.900;2022-09-17T16:33:57;17.30;51.50
39325;DHT22;25037;49.488;9.900;2022-09-17T16:36:22;17.30;51.50
39325;DHT22;25037;49.488;9.900;2022-09-17T16:38:48;17.20;51.50
39325;DHT22;25037;49.488;9.900;2022-09-17T16:41:14;17.20;51.50
39325;DHT22;25037;49.488;9.900;2022-09-17T16:43:39;16.90;51.00
39325;DHT22;25037;49.488;9.900;2022-09-17T16:46:09;16.50;51.60
39325;DHT22;25037;49.488;9.900;2022-09-17T16:48:35;16.10;53.20
39325;DHT22;25037;49.488;9.900;2022-09-17T16:51:08;15.80;53.70
39325;DHT22;25037;49.488;9.900;2022-09-17T16:53:34;15.70;54.50
39325;DHT22;25037;49.488;9.900;2022-09-17T16:56:00;15.50;55.10
39325;DHT22;25037;49.488;9.900;2022-09-17T16:58:25;15.30;55.70
39325;DHT22;25037;49.488;9.900;2022-09-17T17:00:51;15.10;56.30
39325;DHT22;25037;49.488;9.900;2022-09-17T17:03:17;14.90;57.10
39325;DHT22;25037;49.488;9.900;2022-09-17T17:05:42;14.80;57.70
39325;DHT22;25037;49.488;9.900;2022-09-17T17:08:08;14.70;57.90
39325;DHT22;25037;49.488;9.900;2022-09-17T17:10:36;14.60;58.30
39325;DHT22;25037;49.488;9.900;2022-09-17T17:13:02;14.50;59.00
39325;DHT22;25037;49.488;9.900;2022-09-17T17:15:27;14.40;59.20
39325;DHT22;25037;49.488;9.900;2022-09-17T17:17:53;14.30;59.60
39325;DHT22;25037;49.488;9.900;2022-09-17T17:20:19;14.20;59.70
39325;DHT22;25037;49.488;9.900;2022-09-17T17:22:45;14.00;60.10
39325;DHT22;25037;49.488;9.900;2022-09-17T17:25:12;14.00;60.80
39325;DHT22;25037;49.488;9.900;2022-09-17T17:27:40;14.00;61.30
39325;DHT22;25037;49.488;9.900;2022-09-17T17:30:08;14.00;61.10
39325;DHT22;25037;49.488;9.900;2022-09-17T17:32:35;13.90;61.10
39325;DHT22;25037;49.488;9.900;2022-09-17T17:35:01;13.90;61.20
39325;DHT22;25037;49.488;9.900;2022-09-17T17:37:27;13.90;61.10
39325;DHT22;25037;49.488;9.900;2022-09-17T17:39:53;13.80;61.00
39325;DHT22;25037;49.488;9.900;2022-09-17T17:42:19;13.90;61.10
39325;DHT22;25037;49.488;9.900;2022-09-17T17:44:45;13.80;61.50
39325;DHT22;25037;49.488;9.900;2022-09-17T17:47:12;13.80;61.60
39325;DHT22;25037;49.488;9.900;2022-09-17T17:49:37;13.80;61.90
39325;DHT22;25037;49.488;9.900;2022-09-17T17:52:03;13.80;62.30
39325;DHT22;25037;49.488;9.900;2022-09-17T17:54:28;13.80;62.60
39325;DHT22;25037;49.488;9.900;2022-09-17T17:56:55;13.70;62.90
39325;DHT22;25037;49.488;9.900;2022-09-17T17:59:20;13.60;63.30
39325;DHT22;25037;49.488;9.900;2022-09-17T18:01:46;13.60;63.60
39325;DHT22;25037;49.488;9.900;2022-09-17T18:04:11;13.60;63.90
39325;DHT22;25037;49.488;9.900;2022-09-17T18:06:37;13.60;64.20
39325;DHT22;25037;49.488;9.900;2022-09-17T18:09:04;13.50;64.30
39325;DHT22;25037;49.488;9.900;2022-09-17T18:11:30;13.50;64.30
39325;DHT22;25037;49.488;9.900;2022-09-17T18:13:57;13.50;64.20
39325;DHT22;25037;49.488;9.900;2022-09-17T18:16:24;13.50;64.50
39325;DHT22;25037;49.488;9.900;2022-09-17T18:18:50;13.40;64.60
39325;DHT22;25037;49.488;9.900;2022-09-17T18:21:19;13.40;64.70
39325;DHT22;25037;49.488;9.900;2022-09-17T18:23:45;13.40;64.40
39325;DHT22;25037;49.488;9.900;2022-09-17T18:26:16;13.40;64.50
39325;DHT22;25037;49.488;9.900;2022-09-17T18:28:43;13.30;64.90
39325;DHT22;25037;49.488;9.900;2022-09-17T18:31:21;13.30;64.80
39325;DHT22;25037;49.488;9.900;2022-09-17T18:33:48;13.30;65.20
39325;DHT22;25037;49.488;9.900;2022-09-17T18:36:14;13.20;65.20
39325;DHT22;25037;49.488;9.900;2022-09-17T18:38:39;13.10;65.40
39325;DHT22;25037;49.488;9.900;2022-09-17T18:41:06;13.10;65.40
39325;DHT22;25037;49.488;9.900;2022-09-17T18:43:33;13.10;65.50
39325;DHT22;25037;49.488;9.900;2022-09-17T18:45:59;13.00;65.70
39325;DHT22;25037;49.488;9.900;2022-09-17T18:48:25;13.10;65.90
39325;DHT22;25037;49.488;9.900;2022-09-17T18:53:28;13.10;66.20
39325;DHT22;25037;49.488;9.900;2022-09-17T18:55:56;13.00;66.10
39325;DHT22;25037;49.488;9.900;2022-09-17T18:58:22;13.00;66.30